Time;durP1;ratioP1;P1;durP2;ratioP2;P2;SDS_P1;SDS_P2;PMS_P1;PMS_P2;Temp;Humidity;BMP_temperature;BMP_pressure;BME280_temperature;BME280_humidity;BME280_pressure;Samples;Min_cycle;Max_cycle;Signal;HPM_P1;HPM_P2
2022/01/06 00:00:39;;;;;;;4.20;1.30;;;2.80;99.90;;;;;;4973587;28;20474;-65
2022/01/06 00:03:08;;;;;;;2.97;0.93;;;2.70;99.90;;;;;;4973228;28;20478;-65
2022/01/06 00:05:36;;;;;;;3.47;0.90;;;2.70;99.90;;;;;;4973304;28;20546;-65
2022/01/06 00:08:05;;;;;;;6.03;1.03;;;2.60;99.90;;;;;;4972572;28;20995;-65
2022/01/06 00:10:34;;;;;;;6.10;1.23;;;2.30;99.90;;;;;;4972957;28;21045;-65
2022/01/06 00:13:10;;;;;;;3.00;1.20;;;2.20;99.90;;;;;;4973344;28;21015;-65
2022/01/06 00:15:45;;;;;;;3.73;1.20;;;2.20;99.90;;;;;;4973181;28;20561;-65
2022/01/06 00:18:22;;;;;;;2.63;1.10;;;2.40;99.90;;;;;;4973184;28;20550;-65
2022/01/06 00:23:38;;;;;;;5.27;1.07;;;2.70;99.90;;;;;;4965410;28;21120;-65
2022/01/06 00:26:08;;;;;;;4.00;0.93;;;2.70;99.90;;;;;;4972792;28;20828;-65
2022/01/06 00:28:37;;;;;;;3.93;0.90;;;2.80;99.90;;;;;;4953897;28;20829;-65
2022/01/06 00:31:06;;;;;;;5.40;1.17;;;2.60;99.90;;;;;;4953867;28;20925;-65
2022/01/06 00:33:35;;;;;;;2.60;0.90;;;2.50;99.90;;;;;;4972897;28;20486;-65
2022/01/06 00:36:03;;;;;;;7.47;1.40;;;2.60;99.90;;;;;;4972976;28;20478;-65
2022/01/06 00:38:31;;;;;;;5.77;1.20;;;2.50;99.90;;;;;;4972572;28;21025;-65
2022/01/06 00:40:59;;;;;;;4.77;0.90;;;2.40;99.90;;;;;;4972813;28;20474;-65
2022/01/06 00:43:29;;;;;;;2.77;0.90;;;2.20;99.90;;;;;;4972430;28;20485;-65
2022/01/06 00:45:57;;;;;;;2.53;0.93;;;2.40;99.90;;;;;;4972838;28;20475;-65
2022/01/06 00:48:25;;;;;;;6.43;1.03;;;2.40;99.90;;;;;;4972622;28;20485;-65
2022/01/06 00:50:53;;;;;;;3.90;0.90;;;2.60;99.90;;;;;;4972778;28;20507;-65
2022/01/06 00:53:21;;;;;;;3.27;0.97;;;2.70;99.90;;;;;;4972560;28;20487;-65
2022/01/06 00:55:49;;;;;;;2.73;0.87;;;2.60;99.90;;;;;;4972494;28;20992;-65
2022/01/06 00:58:18;;;;;;;6.73;1.20;;;2.40;99.90;;;;;;4972942;28;20458;-65
2022/01/06 01:00:48;;;;;;;4.73;0.90;;;2.30;99.90;;;;;;4972545;28;20911;-65
2022/01/06 01:03:18;;;;;;;2.17;0.77;;;2.50;99.90;;;;;;4972161;28;20477;-65
2022/01/06 01:05:48;;;;;;;7.60;1.30;;;2.70;99.90;;;;;;4972521;28;20559;-65
2022/01/06 01:08:17;;;;;;;1.80;0.80;;;2.60;99.90;;;;;;4972270;28;20489;-65
2022/01/06 01:10:46;;;;;;;5.20;0.93;;;2.50;99.90;;;;;;4972313;28;20478;-65
2022/01/06 01:13:15;;;;;;;3.87;1.13;;;2.40;99.90;;;;;;4972194;28;20974;-65
2022/01/06 01:15:49;;;;;;;3.10;1.00;;;2.30;99.90;;;;;;4971921;28;20479;-65
2022/01/06 01:18:19;;;;;;;2.67;1.20;;;2.10;99.90;;;;;;4972327;28;20470;-65
2022/01/06 01:20:55;;;;;;;4.53;0.94;;;2.20;99.90;;;;;;4447967;28;10001371;-65
2022/01/06 01:23:24;;;;;;;3.67;0.90;;;2.00;99.90;;;;;;1710405;28;10001978;-65
2022/01/06 01:25:52;;;;;;;6.77;1.33;;;2.20;99.90;;;;;;4972023;28;20240;-65
2022/01/06 01:28:20;;;;;;;2.77;1.10;;;2.40;99.90;;;;;;4971855;28;20561;-65
2022/01/06 01:31:02;;;;;;;3.73;1.20;;;2.10;99.90;;;;;;4969554;28;20464;-65
2022/01/06 01:33:32;;;;;;;3.20;0.90;;;2.20;99.90;;;;;;4969795;28;20539;-65
2022/01/06 01:36:00;;;;;;;2.07;0.80;;;2.10;99.90;;;;;;4969573;28;20482;-65
2022/01/06 01:38:28;;;;;;;4.83;1.30;;;2.30;99.90;;;;;;4969063;28;20499;-65
2022/01/06 01:40:56;;;;;;;3.53;0.90;;;2.20;99.90;;;;;;4970235;28;21009;-65
2022/01/06 01:43:24;;;;;;;4.23;1.03;;;2.20;99.90;;;;;;4969030;28;20504;-65
2022/01/06 01:45:57;;;;;;;4.57;1.00;;;2.20;99.90;;;;;;4970076;28;20475;-65
2022/01/06 01:48:32;;;;;;;4.13;1.00;;;2.30;99.90;;;;;;4969580;28;20871;-65
2022/01/06 01:51:02;;;;;;;7.33;1.10;;;2.50;99.90;;;;;;4970010;28;21057;-65
2022/01/06 01:53:30;;;;;;;6.10;1.27;;;2.60;99.90;;;;;;4970880;28;20474;-65
2022/01/06 01:55:58;;;;;;;3.17;0.90;;;2.60;99.90;;;;;;4971806;28;20617;-65
2022/01/06 01:58:26;;;;;;;4.97;1.17;;;2.80;99.90;;;;;;4971359;28;20476;-65
2022/01/06 02:00:55;;;;;;;2.30;1.30;;;2.80;99.90;;;;;;4971585;28;20813;-65
2022/01/06 02:03:23;;;;;;;5.50;1.20;;;2.80;99.90;;;;;;4971343;28;20469;-65
2022/01/06 02:05:51;;;;;;;3.53;1.10;;;2.80;99.90;;;;;;4971715;28;20491;-65
2022/01/06 02:08:21;;;;;;;4.43;1.00;;;2.50;99.90;;;;;;4971387;28;20838;-65
2022/01/06 02:10:49;;;;;;;6.63;1.40;;;2.60;99.90;;;;;;4971876;28;20538;-65
2022/01/06 02:13:17;;;;;;;6.53;1.33;;;2.20;99.90;;;;;;4971663;28;20474;-65
2022/01/06 02:15:45;;;;;;;6.93;1.27;;;1.80;99.90;;;;;;4971438;28;21619;-65
2022/01/06 02:18:13;;;;;;;5.17;1.17;;;1.60;99.90;;;;;;4971486;28;20470;-65
2022/01/06 02:20:42;;;;;;;5.97;1.07;;;2.00;99.90;;;;;;4971502;28;20494;-65
2022/01/06 02:23:11;;;;;;;3.90;1.40;;;2.20;99.90;;;;;;4971368;28;20463;-65
2022/01/06 02:25:39;;;;;;;5.07;1.50;;;2.20;99.90;;;;;;4971103;28;20560;-65
2022/01/06 02:28:07;;;;;;;5.80;1.30;;;2.00;99.90;;;;;;4971402;28;21029;-65
2022/01/06 02:30:36;;;;;;;5.20;1.00;;;2.20;99.90;;;;;;4971312;28;20483;-65
2022/01/06 02:33:06;;;;;;;3.47;1.03;;;2.30;99.90;;;;;;4971382;28;20860;-65
2022/01/06 02:35:35;;;;;;;3.43;1.20;;;2.40;99.90;;;;;;4971230;28;20902;-65
2022/01/06 02:38:05;;;;;;;6.00;1.23;;;2.40;99.90;;;;;;4971351;28;20804;-65
2022/01/06 02:40:33;;;;;;;2.13;0.90;;;2.30;99.90;;;;;;4971320;28;20483;-65
2022/01/06 02:43:02;;;;;;;4.73;1.10;;;2.30;99.90;;;;;;4971170;28;20466;-65
2022/01/06 02:45:31;;;;;;;5.07;1.23;;;2.50;99.90;;;;;;4971353;28;20828;-65
2022/01/06 02:48:05;;;;;;;5.10;1.20;;;2.10;99.90;;;;;;4971210;28;20478;-65
2022/01/06 02:50:33;;;;;;;3.50;1.10;;;2.20;99.90;;;;;;4974465;28;20532;-65
2022/01/06 02:53:02;;;;;;;2.40;1.00;;;2.10;99.90;;;;;;4974707;28;20911;-65
2022/01/06 02:55:32;;;;;;;3.93;1.00;;;1.90;99.90;;;;;;4974404;28;20498;-65
2022/01/06 02:58:00;;;;;;;4.00;0.90;;;2.10;99.90;;;;;;4974525;28;20606;-65
2022/01/06 03:00:29;;;;;;;5.40;1.20;;;2.20;99.90;;;;;;4974401;28;20899;-65
2022/01/06 03:02:58;;;;;;;8.93;1.50;;;2.10;99.90;;;;;;4974187;28;20989;-65
2022/01/06 03:05:26;;;;;;;3.90;1.17;;;2.00;99.90;;;;;;4974498;28;20562;-65
2022/01/06 03:07:54;;;;;;;5.23;1.50;;;1.80;99.90;;;;;;4974327;28;20482;-65
2022/01/06 03:10:23;;;;;;;6.30;1.40;;;1.90;99.90;;;;;;4974664;28;20479;-65
2022/01/06 03:12:52;;;;;;;7.53;1.70;;;2.10;99.90;;;;;;4973789;28;20823;-65
2022/01/06 03:15:22;;;;;;;8.53;1.20;;;2.10;99.90;;;;;;4974406;28;20545;-65
2022/01/06 03:17:53;;;;;;;4.37;1.30;;;2.30;99.90;;;;;;4974193;28;20485;-65
2022/01/06 03:20:23;;;;;;;13.50;1.40;;;2.40;99.90;;;;;;4974306;28;20825;-65
2022/01/06 03:22:51;;;;;;;11.40;1.50;;;2.20;99.90;;;;;;4973836;28;21003;-65
2022/01/06 03:25:21;;;;;;;6.78;1.42;;;2.20;99.90;;;;;;1314560;28;10023279;-65
2022/01/06 03:27:51;;;;;;;6.87;1.40;;;2.00;99.90;;;;;;4630315;28;10000896;-65
2022/01/06 03:30:21;;;;;;;6.53;1.13;;;2.30;99.90;;;;;;4974212;28;20574;-65
2022/01/06 03:32:50;;;;;;;7.37;1.53;;;2.20;99.90;;;;;;4971852;28;20517;-65
2022/01/06 03:35:21;;;;;;;5.70;1.17;;;2.20;99.90;;;;;;4970805;28;21002;-65
2022/01/06 03:37:50;;;;;;;3.73;1.30;;;2.20;99.90;;;;;;4970423;28;20522;-65
2022/01/06 03:40:18;;;;;;;5.27;1.30;;;2.20;99.90;;;;;;4971224;28;20467;-65
2022/01/06 03:42:47;;;;;;;7.37;1.47;;;2.10;99.90;;;;;;4971025;28;20766;-65
2022/01/06 03:45:18;;;;;;;4.63;1.17;;;2.20;99.90;;;;;;4973997;28;20478;-65
2022/01/06 03:47:47;;;;;;;3.87;1.10;;;2.40;99.90;;;;;;4973768;28;20529;-65
2022/01/06 03:50:16;;;;;;;4.17;1.20;;;2.30;99.90;;;;;;4974004;28;20482;-65
2022/01/06 03:52:45;;;;;;;6.17;1.23;;;2.10;99.90;;;;;;4973503;28;20479;-65
2022/01/06 03:55:14;;;;;;;6.37;1.43;;;2.20;99.90;;;;;;4973747;28;20471;-65
2022/01/06 03:57:42;;;;;;;5.70;1.37;;;2.30;99.90;;;;;;4973208;28;20531;-65
2022/01/06 04:00:15;;;;;;;3.23;1.30;;;2.40;99.90;;;;;;4972677;28;20475;-65
2022/01/06 04:02:45;;;;;;;6.97;1.57;;;2.50;99.90;;;;;;4973048;28;20546;-65
2022/01/06 04:05:14;;;;;;;6.10;1.30;;;2.50;99.90;;;;;;4973440;28;20456;-65
2022/01/06 04:07:43;;;;;;;3.77;1.33;;;2.70;99.90;;;;;;4973097;28;20469;-65
2022/01/06 04:10:11;;;;;;;5.13;1.10;;;2.80;99.90;;;;;;4973433;28;20478;-65
2022/01/06 04:12:39;;;;;;;5.53;1.10;;;2.80;99.90;;;;;;4973145;28;20478;-65
2022/01/06 04:15:11;;;;;;;8.10;1.30;;;2.70;99.90;;;;;;4973286;28;20493;-65
2022/01/06 04:17:39;;;;;;;2.60;1.00;;;2.40;99.90;;;;;;4972871;28;20471;-65
2022/01/06 04:20:11;;;;;;;4.70;1.20;;;2.50;99.90;;;;;;4973096;28;20479;-65
2022/01/06 04:22:40;;;;;;;6.30;1.33;;;2.70;99.90;;;;;;4972401;28;20549;-65
2022/01/06 04:25:09;;;;;;;3.73;1.00;;;2.60;99.90;;;;;;4972846;28;20562;-65
2022/01/06 04:27:38;;;;;;;4.47;1.00;;;2.70;99.90;;;;;;4972976;28;20484;-65
2022/01/06 04:30:09;;;;;;;4.90;1.20;;;2.50;99.90;;;;;;4973059;28;20467;-65
2022/01/06 04:32:37;;;;;;;5.03;1.30;;;2.30;99.90;;;;;;4972706;28;20542;-65
2022/01/06 04:35:07;;;;;;;2.93;1.00;;;2.10;99.90;;;;;;4972920;28;21002;-65
2022/01/06 04:37:38;;;;;;;4.87;1.20;;;2.10;99.90;;;;;;4972318;28;20487;-65
2022/01/06 04:40:08;;;;;;;2.67;1.13;;;2.00;99.90;;;;;;4971779;28;20495;-65
2022/01/06 04:42:36;;;;;;;3.73;1.17;;;2.00;99.90;;;;;;4972075;28;20488;-65
2022/01/06 04:45:05;;;;;;;5.70;1.63;;;1.90;99.90;;;;;;4972710;28;20517;-65
2022/01/06 04:47:33;;;;;;;3.53;1.23;;;1.80;99.90;;;;;;4972362;28;20478;-65
2022/01/06 04:50:01;;;;;;;2.33;1.10;;;1.90;99.90;;;;;;4972508;28;20530;-65
2022/01/06 04:52:30;;;;;;;5.47;0.90;;;1.70;99.90;;;;;;4972164;28;20487;-65
2022/01/06 04:54:59;;;;;;;3.73;1.07;;;1.90;99.90;;;;;;4972531;28;20535;-65
2022/01/06 04:57:27;;;;;;;1.57;0.90;;;2.00;99.90;;;;;;4972144;28;20476;-65
2022/01/06 04:59:55;;;;;;;4.60;1.20;;;2.10;99.90;;;;;;4972536;28;20475;-65
2022/01/06 05:02:27;;;;;;;2.50;0.70;;;2.00;99.90;;;;;;4971934;28;20892;-65
2022/01/06 05:04:56;;;;;;;3.27;0.93;;;2.00;99.90;;;;;;4972544;28;20485;-65
2022/01/06 05:07:24;;;;;;;5.33;0.90;;;2.20;99.90;;;;;;4971993;28;20484;-65
2022/01/06 05:09:52;;;;;;;3.03;0.90;;;2.30;99.90;;;;;;4972278;28;20486;-65
2022/01/06 05:12:22;;;;;;;7.00;1.23;;;2.30;99.90;;;;;;4972204;28;20486;-65
2022/01/06 05:14:51;;;;;;;6.27;1.50;;;2.10;99.90;;;;;;4972096;28;20507;-65
2022/01/06 05:17:19;;;;;;;3.90;0.97;;;1.80;99.90;;;;;;4972167;28;20478;-65
2022/01/06 05:20:00;;;;;;;4.97;1.20;;;2.10;99.90;;;;;;3251786;28;10022472;-65
2022/01/06 05:22:29;;;;;;;5.85;0.90;;;1.80;99.90;;;;;;3252328;28;10002076;-65
2022/01/06 05:24:58;;;;;;;3.80;1.13;;;1.90;99.90;;;;;;4972170;28;20297;-65
2022/01/06 05:27:27;;;;;;;3.77;1.10;;;1.60;99.90;;;;;;4971814;28;20475;-65
2022/01/06 05:29:55;;;;;;;2.60;1.00;;;1.90;99.90;;;;;;4972114;28;20470;-65
2022/01/06 05:32:23;;;;;;;2.77;1.07;;;2.30;99.90;;;;;;4971810;28;20474;-65
2022/01/06 05:34:51;;;;;;;4.83;0.80;;;2.20;99.90;;;;;;4972002;28;20903;-65
2022/01/06 05:37:19;;;;;;;2.27;0.73;;;2.10;99.90;;;;;;4971704;28;20488;-65
2022/01/06 05:39:48;;;;;;;4.40;0.93;;;2.30;99.90;;;;;;4972100;28;20471;-65
2022/01/06 05:42:16;;;;;;;3.47;0.87;;;2.30;99.90;;;;;;4971500;28;20474;-65
2022/01/06 05:44:46;;;;;;;7.93;1.13;;;2.00;99.90;;;;;;4971615;28;20484;-65
2022/01/06 05:47:14;;;;;;;3.73;0.80;;;2.10;99.90;;;;;;4971831;28;20475;-65
2022/01/06 05:49:42;;;;;;;2.83;0.87;;;1.90;99.90;;;;;;4971647;28;20479;-65
2022/01/06 05:52:10;;;;;;;4.20;0.80;;;1.90;99.90;;;;;;4971688;28;20556;-65
2022/01/06 05:54:39;;;;;;;3.63;1.00;;;2.00;99.90;;;;;;4971588;28;21026;-65
2022/01/06 05:57:11;;;;;;;4.80;1.10;;;2.00;99.90;;;;;;4971816;28;20557;-65
2022/01/06 05:59:39;;;;;;;1.77;0.77;;;1.90;99.90;;;;;;4971523;28;20528;-65
2022/01/06 06:02:09;;;;;;;1.97;0.87;;;1.70;99.90;;;;;;4971536;28;20888;-65
2022/01/06 06:04:38;;;;;;;7.23;1.30;;;1.80;99.90;;;;;;4971444;28;20478;-65
2022/01/06 06:07:06;;;;;;;6.63;1.40;;;1.80;99.90;;;;;;4971425;28;20506;-65
2022/01/06 06:09:34;;;;;;;8.03;1.30;;;2.10;99.90;;;;;;4971204;28;20483;-65
2022/01/06 06:12:03;;;;;;;5.07;1.17;;;2.30;99.90;;;;;;4971588;28;20568;-65
2022/01/06 06:14:31;;;;;;;8.13;1.70;;;2.00;99.90;;;;;;4967952;28;20484;-65
2022/01/06 06:16:59;;;;;;;5.33;1.27;;;2.30;99.90;;;;;;4970849;28;20998;-65
2022/01/06 06:19:28;;;;;;;4.10;1.00;;;2.40;99.90;;;;;;4971273;28;20887;-65
2022/01/06 06:21:57;;;;;;;5.60;1.43;;;2.10;99.90;;;;;;4970426;28;20864;-65
2022/01/06 06:24:25;;;;;;;2.73;0.97;;;2.10;99.90;;;;;;4965304;28;20551;-65
2022/01/06 06:26:53;;;;;;;4.67;1.23;;;2.00;99.90;;;;;;4968711;28;20467;-65
2022/01/06 06:29:21;;;;;;;9.93;2.20;;;2.10;99.90;;;;;;4975062;28;20519;-65
2022/01/06 06:31:50;;;;;;;3.73;1.20;;;2.40;99.90;;;;;;4970971;28;20478;-65
2022/01/06 06:34:18;;;;;;;6.80;1.37;;;2.40;99.90;;;;;;4967441;28;21160;-65
2022/01/06 06:36:47;;;;;;;6.20;1.70;;;2.50;99.90;;;;;;4974829;28;20488;-65
2022/01/06 06:39:15;;;;;;;6.30;1.70;;;2.50;99.90;;;;;;4967742;28;20487;-65
2022/01/06 06:41:43;;;;;;;9.40;1.77;;;2.80;99.90;;;;;;4966146;28;20515;-65
2022/01/06 06:44:12;;;;;;;8.60;1.97;;;3.00;99.90;;;;;;4974615;28;20485;-65
2022/01/06 06:46:40;;;;;;;7.50;1.60;;;3.10;99.90;;;;;;4974370;28;20478;-65
2022/01/06 06:49:08;;;;;;;5.27;1.23;;;2.80;99.90;;;;;;4974888;28;20502;-65
2022/01/06 06:51:36;;;;;;;4.20;1.13;;;2.40;99.90;;;;;;4972096;28;20479;-65
2022/01/06 06:54:13;;;;;;;6.13;1.60;;;2.40;99.90;;;;;;4955393;28;20510;-65
2022/01/06 06:56:42;;;;;;;7.13;1.70;;;2.60;99.90;;;;;;4954768;28;20458;-65
2022/01/06 06:59:10;;;;;;;3.53;1.43;;;3.10;99.90;;;;;;4954549;28;20571;-65
2022/01/06 07:01:38;;;;;;;5.87;0.87;;;2.50;99.90;;;;;;4969104;28;20489;-65
2022/01/06 07:04:06;;;;;;;3.50;0.97;;;2.20;99.90;;;;;;4974775;28;20478;-65
2022/01/06 07:06:34;;;;;;;8.63;2.37;;;2.00;99.90;;;;;;4969697;28;20510;-65
2022/01/06 07:09:02;;;;;;;3.10;0.97;;;2.30;99.90;;;;;;4974215;28;20480;-65
2022/01/06 07:11:32;;;;;;;7.37;1.47;;;2.30;99.90;;;;;;4972633;28;20537;-65
2022/01/06 07:14:01;;;;;;;5.37;1.40;;;2.10;99.90;;;;;;4954952;28;20553;-65
2022/01/06 07:16:29;;;;;;;8.70;1.80;;;2.40;99.90;;;;;;4954740;28;20492;-65
2022/01/06 07:19:08;;;;;;;5.94;1.24;;;2.80;99.90;;;;;;3365301;28;10022491;-65
2022/01/06 07:21:36;;;;;;;6.30;1.17;;;2.80;99.90;;;;;;2905985;28;10002104;-65
2022/01/06 07:24:05;;;;;;;6.43;1.10;;;2.60;99.90;;;;;;4967665;28;20239;-65
2022/01/06 07:26:34;;;;;;;5.33;1.10;;;2.50;99.90;;;;;;4972058;28;20539;-65
2022/01/06 07:29:02;;;;;;;4.37;1.00;;;2.20;99.90;;;;;;4954949;28;20495;-65
2022/01/06 07:31:31;;;;;;;5.93;1.30;;;1.80;99.90;;;;;;4954332;28;20484;-65
2022/01/06 07:33:59;;;;;;;4.77;1.17;;;2.20;99.90;;;;;;4956015;28;20477;-65
2022/01/06 07:36:27;;;;;;;5.77;1.47;;;2.40;99.90;;;;;;4953055;28;20495;-65
2022/01/06 07:38:55;;;;;;;5.17;1.50;;;2.40;99.90;;;;;;4954161;28;20467;-65
2022/01/06 07:41:23;;;;;;;7.47;1.63;;;2.50;99.90;;;;;;4954342;28;20575;-65
2022/01/06 07:43:53;;;;;;;4.27;1.40;;;2.50;99.90;;;;;;4954741;28;20476;-65
2022/01/06 07:46:21;;;;;;;8.10;1.97;;;2.40;99.90;;;;;;4970440;28;20804;-65
2022/01/06 07:48:55;;;;;;;5.03;1.40;;;2.40;99.90;;;;;;4967111;28;21017;-65
2022/01/06 07:51:24;;;;;;;6.43;1.57;;;2.40;99.90;;;;;;4969674;28;20526;-65
2022/01/06 07:53:53;;;;;;;5.73;1.60;;;2.30;99.90;;;;;;4966096;28;20474;-65
2022/01/06 07:56:21;;;;;;;5.73;2.07;;;2.00;99.90;;;;;;4972147;28;20497;-65
2022/01/06 07:58:49;;;;;;;2.10;1.37;;;1.90;99.90;;;;;;4973085;28;20885;-65
2022/01/06 08:01:19;;;;;;;3.83;1.10;;;1.80;99.90;;;;;;4973462;28;20487;-65
2022/01/06 08:03:47;;;;;;;5.87;1.40;;;1.60;99.90;;;;;;4954144;28;20506;-65
2022/01/06 08:06:18;;;;;;;5.60;1.50;;;1.40;99.90;;;;;;4953975;28;20547;-65
2022/01/06 08:08:47;;;;;;;4.90;1.87;;;1.50;99.90;;;;;;4953879;28;21104;-65
2022/01/06 08:11:15;;;;;;;5.00;1.43;;;1.40;99.90;;;;;;4954012;28;20843;-65
2022/01/06 08:13:49;;;;;;;5.70;1.97;;;1.40;99.90;;;;;;4965683;28;20482;-65
2022/01/06 08:16:19;;;;;;;5.80;1.90;;;1.60;99.90;;;;;;4954532;28;20957;-65
2022/01/06 08:18:47;;;;;;;4.17;1.87;;;1.60;99.90;;;;;;4962626;28;21053;-65
2022/01/06 08:21:15;;;;;;;4.30;1.80;;;1.60;99.90;;;;;;4953955;28;20979;-65
2022/01/06 08:23:43;;;;;;;5.93;2.23;;;1.40;99.90;;;;;;4953741;28;20528;-65
2022/01/06 08:26:16;;;;;;;6.47;2.00;;;1.40;99.90;;;;;;4954119;28;20470;-65
2022/01/06 08:28:46;;;;;;;7.50;1.70;;;1.50;99.90;;;;;;4965040;28;20484;-65
2022/01/06 08:31:16;;;;;;;3.97;1.30;;;1.60;99.90;;;;;;4972483;28;20474;-65
2022/01/06 08:33:46;;;;;;;4.13;1.40;;;1.80;99.90;;;;;;4964696;28;20827;-65
2022/01/06 08:36:14;;;;;;;3.83;1.70;;;1.80;99.90;;;;;;4972618;28;20889;-65
2022/01/06 08:38:43;;;;;;;3.30;1.10;;;1.80;99.90;;;;;;4962462;28;20585;-65
2022/01/06 08:41:11;;;;;;;5.47;1.50;;;1.70;99.90;;;;;;4974046;28;20477;-65
2022/01/06 08:43:45;;;;;;;3.97;1.10;;;1.70;99.90;;;;;;4957783;28;22130;-65
2022/01/06 08:46:13;;;;;;;5.57;1.50;;;1.80;99.90;;;;;;4953076;28;20887;-65
2022/01/06 08:48:41;;;;;;;4.33;1.27;;;1.70;99.90;;;;;;4953105;28;20483;-65
2022/01/06 08:51:11;;;;;;;4.23;1.70;;;2.00;99.90;;;;;;4953468;28;20577;-64
2022/01/06 08:53:39;;;;;;;5.70;1.40;;;2.00;99.90;;;;;;4953090;28;20484;-65
2022/01/06 08:56:08;;;;;;;3.10;1.60;;;1.90;99.90;;;;;;4953298;28;20487;-65
2022/01/06 08:58:36;;;;;;;5.87;1.43;;;2.00;99.90;;;;;;4952524;28;20475;-65
2022/01/06 09:01:04;;;;;;;3.40;1.30;;;2.00;99.90;;;;;;4953233;28;20472;-65
2022/01/06 09:03:32;;;;;;;2.10;1.30;;;2.00;99.90;;;;;;4952640;28;20841;-65
2022/01/06 09:06:01;;;;;;;2.23;1.03;;;2.00;99.90;;;;;;4953186;28;20562;-65
2022/01/06 09:08:30;;;;;;;3.57;1.30;;;2.20;99.90;;;;;;4952615;28;20555;-65
2022/01/06 09:10:59;;;;;;;6.57;1.40;;;2.20;99.90;;;;;;4953285;28;21026;-65
2022/01/06 09:13:28;;;;;;;3.10;1.60;;;2.40;99.90;;;;;;4952619;28;20480;-65
2022/01/06 09:15:57;;;;;;;5.90;1.60;;;2.30;99.90;;;;;;4953102;28;20475;-65
2022/01/06 09:18:31;;;;;;;4.04;1.48;;;2.30;99.90;;;;;;4733163;28;10000632;-65
2022/01/06 09:20:59;;;;;;;5.00;2.00;;;2.20;99.90;;;;;;1358267;28;10002029;-65
2022/01/06 09:23:27;;;;;;;4.43;1.47;;;2.10;99.90;;;;;;4954637;28;20250;-65
2022/01/06 09:25:57;;;;;;;4.57;1.50;;;2.20;99.90;;;;;;4953430;28;20480;-65
2022/01/06 09:28:25;;;;;;;9.30;1.60;;;2.10;99.90;;;;;;4952635;28;20494;-65
2022/01/06 09:30:55;;;;;;;8.43;1.80;;;2.10;99.90;;;;;;4952903;28;20484;-65
2022/01/06 09:33:24;;;;;;;3.87;1.33;;;2.10;99.90;;;;;;4952724;28;20480;-65
2022/01/06 09:35:53;;;;;;;6.80;1.40;;;2.10;99.90;;;;;;4952837;28;20483;-65
2022/01/06 09:38:21;;;;;;;4.20;1.87;;;2.30;99.90;;;;;;4964607;28;20524;-65
2022/01/06 09:40:49;;;;;;;6.03;1.50;;;2.40;99.90;;;;;;4952385;28;20475;-65
2022/01/06 09:43:25;;;;;;;5.57;1.50;;;2.60;99.90;;;;;;4953231;28;20483;-65
2022/01/06 09:45:53;;;;;;;4.37;1.50;;;2.60;99.90;;;;;;4972117;28;20493;-65
2022/01/06 09:48:22;;;;;;;5.40;1.70;;;2.80;99.90;;;;;;4970070;28;20597;-65
2022/01/06 09:50:50;;;;;;;7.57;1.57;;;2.80;99.90;;;;;;4969489;28;20490;-65
2022/01/06 09:53:21;;;;;;;7.03;2.10;;;2.80;99.90;;;;;;4982367;28;20470;-65
2022/01/06 09:55:49;;;;;;;7.20;1.97;;;2.80;99.90;;;;;;4991121;28;20974;-65
2022/01/06 09:58:25;;;;;;;4.77;2.00;;;2.80;99.90;;;;;;4959273;28;20557;-65
2022/01/06 10:00:55;;;;;;;4.37;1.67;;;3.00;99.90;;;;;;4975434;28;20477;-65
2022/01/06 10:03:34;;;;;;;5.40;2.03;;;3.00;99.90;;;;;;4959739;28;20510;-65
2022/01/06 10:06:16;;;;;;;5.30;2.10;;;3.10;99.90;;;;;;4958435;28;20551;-65
2022/01/06 10:08:51;;;;;;;6.53;1.97;;;3.10;99.90;;;;;;4955966;28;20602;-65
2022/01/06 10:11:21;;;;;;;6.60;1.73;;;3.30;99.90;;;;;;4956019;28;20547;-65
2022/01/06 10:14:00;;;;;;;5.00;2.00;;;3.50;99.90;;;;;;4956101;28;20478;-65
2022/01/06 10:16:29;;;;;;;3.40;1.33;;;3.30;99.90;;;;;;4964884;28;20490;-65
2022/01/06 10:19:04;;;;;;;4.03;1.77;;;3.30;99.90;;;;;;4963659;28;20554;-65
2022/01/06 10:21:37;;;;;;;7.73;2.50;;;3.30;99.90;;;;;;4958353;28;20461;-65
2022/01/06 10:24:09;;;;;;;4.17;2.10;;;3.50;99.90;;;;;;4967375;28;21000;-65
2022/01/06 10:26:39;;;;;;;6.10;2.30;;;3.40;99.90;;;;;;4974666;28;20479;-65
2022/01/06 10:29:09;;;;;;;5.70;1.87;;;3.30;99.90;;;;;;4967348;28;20480;-65
2022/01/06 10:31:37;;;;;;;6.67;2.10;;;3.50;99.90;;;;;;4972875;28;21015;-65
2022/01/06 10:34:09;;;;;;;5.77;1.73;;;3.60;99.90;;;;;;4974930;28;20523;-65
2022/01/06 10:36:39;;;;;;;7.70;1.60;;;3.50;99.90;;;;;;4972697;28;20477;-65
2022/01/06 10:39:08;;;;;;;3.97;1.60;;;3.50;99.90;;;;;;4963301;28;20496;-65
2022/01/06 10:41:38;;;;;;;5.30;1.80;;;3.60;99.90;;;;;;4955327;28;20477;-65
2022/01/06 10:44:09;;;;;;;8.57;1.70;;;3.80;99.90;;;;;;4955610;28;20506;-65
2022/01/06 10:46:40;;;;;;;2.47;1.53;;;4.10;99.90;;;;;;4955532;28;20850;-65
2022/01/06 10:49:11;;;;;;;5.03;1.43;;;4.10;99.90;;;;;;4955576;28;20485;-65
2022/01/06 10:51:42;;;;;;;3.97;1.50;;;4.20;99.90;;;;;;4955529;28;20533;-65
2022/01/06 10:54:14;;;;;;;4.60;1.37;;;4.30;99.90;;;;;;4973256;28;20489;-65
2022/01/06 10:56:43;;;;;;;5.97;1.50;;;4.30;99.90;;;;;;4974632;28;20492;-65
2022/01/06 10:59:11;;;;;;;5.60;1.37;;;4.30;99.90;;;;;;4974507;28;20484;-65
2022/01/06 11:01:40;;;;;;;5.73;1.60;;;4.50;99.90;;;;;;4976130;28;20477;-65
2022/01/06 11:04:09;;;;;;;4.83;1.60;;;4.70;99.90;;;;;;4973825;28;20479;-65
2022/01/06 11:06:37;;;;;;;4.57;1.60;;;4.70;99.90;;;;;;4974099;28;20478;-65
2022/01/06 11:09:06;;;;;;;4.40;1.80;;;4.90;99.90;;;;;;4964495;28;20998;-65
2022/01/06 11:12:26;;;;;;;3.90;1.70;;;4.80;99.90;;;;;;4957602;28;21005;-65
2022/01/06 11:14:33;;;;;;;4.80;1.53;;;4.80;99.90;;;;;;4954520;28;20483;-65
2022/01/06 11:17:03;;;;;;;4.43;1.40;;;4.80;99.90;;;;;;4954634;28;20474;-65
2022/01/06 11:19:45;;;;;;;6.53;1.61;;;4.80;99.90;;;;;;3106280;28;10002137;-65
2022/01/06 11:22:14;;;;;;;4.90;1.87;;;4.70;99.90;;;;;;3253459;28;10001853;-65
2022/01/06 11:24:53;;;;;;;6.63;2.13;;;4.90;99.90;;;;;;4962149;28;21041;-65
2022/01/06 11:27:32;;;;;;;4.67;1.73;;;5.00;99.90;;;;;;4962853;28;20462;-65
2022/01/06 11:30:12;;;;;;;8.07;2.00;;;5.00;99.90;;;;;;4974028;28;20478;-65
2022/01/06 11:32:43;;;;;;;6.07;1.87;;;5.20;99.90;;;;;;4968239;28;20997;-65
2022/01/06 11:35:16;;;;;;;7.17;1.87;;;5.40;99.90;;;;;;4959110;28;20567;-65
2022/01/06 11:37:46;;;;;;;6.60;1.60;;;5.50;99.90;;;;;;4963557;28;20610;-65
2022/01/06 11:40:17;;;;;;;3.10;1.57;;;5.60;99.90;;;;;;4954790;28;21216;-65
2022/01/06 11:42:54;;;;;;;4.17;2.00;;;5.70;99.90;;;;;;4954519;28;20245;-65
2022/01/06 11:45:22;;;;;;;10.53;1.90;;;5.60;99.90;;;;;;4954786;28;20475;-65
2022/01/06 11:48:02;;;;;;;7.47;2.20;;;5.60;99.90;;;;;;4954408;28;20277;-65
2022/01/06 11:50:37;;;;;;;4.47;1.50;;;5.60;99.90;;;;;;4954208;28;20529;-65
2022/01/06 11:53:05;;;;;;;6.57;1.93;;;5.50;99.90;;;;;;4954276;28;20482;-65
2022/01/06 11:55:36;;;;;;;7.47;2.00;;;5.60;99.90;;;;;;4953827;28;20251;-65
2022/01/06 11:58:16;;;;;;;6.67;1.97;;;5.50;99.90;;;;;;4969176;28;20468;-65
2022/01/06 12:00:56;;;;;;;8.53;2.50;;;5.60;99.90;;;;;;4952904;28;21536;-65
2022/01/06 12:03:37;;;;;;;5.57;2.27;;;5.60;99.90;;;;;;4972267;28;20242;-65
2022/01/06 12:06:06;;;;;;;6.30;1.83;;;5.60;99.90;;;;;;4973463;28;21001;-65
2022/01/06 12:08:39;;;;;;;5.83;1.73;;;5.60;99.90;;;;;;4956184;28;20320;-65
2022/01/06 12:11:10;;;;;;;6.70;1.80;;;5.60;99.90;;;;;;4954045;28;20576;-65
2022/01/06 12:13:45;;;;;;;3.87;1.37;;;5.50;99.90;;;;;;4962339;28;20868;-65
2022/01/06 12:16:23;;;;;;;7.20;2.20;;;5.60;99.90;;;;;;4970834;28;20499;-64
2022/01/06 12:18:52;;;;;;;8.63;1.93;;;5.70;99.90;;;;;;4969090;28;20472;-65
2022/01/06 12:21:22;;;;;;;5.13;1.93;;;5.80;99.90;;;;;;4970995;28;20997;-65
2022/01/06 12:24:01;;;;;;;8.93;1.80;;;5.80;99.90;;;;;;4969763;28;20481;-65
2022/01/06 12:26:30;;;;;;;10.03;1.67;;;5.70;99.90;;;;;;4967931;28;20756;-65
2022/01/06 12:28:58;;;;;;;3.20;1.57;;;5.60;99.90;;;;;;4967243;28;20507;-65
2022/01/06 12:31:28;;;;;;;7.73;1.77;;;5.50;99.90;;;;;;4967094;28;20486;-65
2022/01/06 12:34:01;;;;;;;3.13;1.60;;;5.50;99.90;;;;;;4961822;28;20470;-65
2022/01/06 12:36:31;;;;;;;6.07;1.73;;;5.50;99.90;;;;;;4956999;28;20610;-65
2022/01/06 12:39:06;;;;;;;7.43;1.70;;;5.50;99.90;;;;;;4972835;28;20241;-65
2022/01/06 12:41:37;;;;;;;7.00;2.30;;;5.50;99.90;;;;;;4972335;28;20481;-65
2022/01/06 12:44:06;;;;;;;7.17;1.40;;;5.50;99.90;;;;;;4972679;28;20244;-65
2022/01/06 12:46:37;;;;;;;6.20;1.67;;;5.50;99.90;;;;;;4972323;28;20666;-64
2022/01/06 12:49:08;;;;;;;4.07;1.30;;;5.50;99.90;;;;;;4972800;28;20981;-65
2022/01/06 12:51:38;;;;;;;6.27;2.10;;;5.60;99.90;;;;;;4972324;28;20246;-65
2022/01/06 12:54:11;;;;;;;9.73;2.90;;;5.50;99.90;;;;;;4972493;28;20245;-65
2022/01/06 12:56:41;;;;;;;6.90;1.50;;;5.50;99.90;;;;;;4972288;28;20485;-65
2022/01/06 12:59:11;;;;;;;4.97;1.60;;;5.50;99.90;;;;;;4969036;28;20486;-65
2022/01/06 13:01:40;;;;;;;5.30;1.50;;;5.50;99.90;;;;;;4964201;28;20285;-65
2022/01/06 13:04:12;;;;;;;5.40;1.43;;;5.50;99.90;;;;;;4969658;28;20234;-65
2022/01/06 13:06:42;;;;;;;7.57;1.60;;;5.50;99.90;;;;;;4970408;28;20546;-65
2022/01/06 13:09:16;;;;;;;5.40;1.60;;;5.40;99.90;;;;;;4971683;28;20488;-65
2022/01/06 13:11:48;;;;;;;7.00;2.03;;;5.40;99.90;;;;;;4965000;28;20544;-65